Time;durP1;ratioP1;P1;durP2;ratioP2;P2;SDS_P1;SDS_P2;PMS_P1;PMS_P2;Temp;Humidity;BMP_temperature;BMP_pressure;BME280_temperature;BME280_humidity;BME280_pressure;Samples;Min_cycle;Max_cycle;Signal;HPM_P1;HPM_P2
2023/05/16 00:00:38;;;;;;;10.00;6.03;;;;;;;;;;2087509;28;20041;-61
2023/05/16 00:01:57;;;;;;;10.90;6.15;;;;;;;;;;2093933;28;20551;-65
2023/05/16 00:03:16;;;;;;;12.10;5.90;;;;;;;;;;2088068;28;20394;-62
2023/05/16 00:04:35;;;;;;;5.55;5.05;;;;;;;;;;2089399;28;20029;-62
2023/05/16 00:05:54;;;;;;;11.15;5.63;;;;;;;;;;2092864;28;20040;-62
2023/05/16 00:07:14;;;;;;;12.38;6.03;;;;;;;;;;2092388;28;20037;-62
2023/05/16 00:08:32;;;;;;;11.55;5.95;;;;;;;;;;2093395;28;20115;-62
2023/05/16 00:09:51;;;;;;;10.93;5.40;;;;;;;;;;2088568;28;20029;-63
2023/05/16 00:11:11;;;;;;;13.85;6.18;;;;;;;;;;2088564;28;20060;-62
2023/05/16 00:12:31;;;;;;;6.65;5.47;;;;;;;;;;2085643;28;20025;-62
2023/05/16 00:13:51;;;;;;;10.10;6.00;;;;;;;;;;2091395;28;20033;-62
2023/05/16 00:15:13;;;;;;;5.75;5.25;;;;;;;;;;2087009;28;20029;-62
2023/05/16 00:16:31;;;;;;;8.98;5.45;;;;;;;;;;2090899;28;20431;-63
2023/05/16 00:17:51;;;;;;;5.45;5.00;;;;;;;;;;2092076;28;20025;-62
2023/05/16 00:19:10;;;;;;;6.38;5.63;;;;;;;;;;2087896;28;20037;-62
2023/05/16 00:20:29;;;;;;;6.47;5.63;;;;;;;;;;2091858;28;20020;-62
2023/05/16 00:21:48;;;;;;;8.93;5.20;;;;;;;;;;2089780;28;20493;-62
2023/05/16 00:23:07;;;;;;;8.38;6.13;;;;;;;;;;2086796;28;20939;-62
2023/05/16 00:24:25;;;;;;;6.57;5.50;;;;;;;;;;2093828;28;20021;-62
2023/05/16 00:25:46;;;;;;;6.63;5.95;;;;;;;;;;2092471;28;20033;-62
2023/05/16 00:27:04;;;;;;;11.57;6.70;;;;;;;;;;2092689;28;20036;-62
2023/05/16 00:28:23;;;;;;;6.63;6.03;;;;;;;;;;2094848;28;20438;-62
2023/05/16 00:29:42;;;;;;;9.20;6.03;;;;;;;;;;2091413;28;20037;-62
2023/05/16 00:31:01;;;;;;;6.97;5.70;;;;;;;;;;2080426;28;20037;-62
2023/05/16 00:32:20;;;;;;;5.78;5.20;;;;;;;;;;2089154;28;20739;-62
2023/05/16 00:33:39;;;;;;;8.68;5.90;;;;;;;;;;2087706;28;20037;-62
2023/05/16 00:34:58;;;;;;;8.02;5.82;;;;;;;;;;2089818;28;20029;-62
2023/05/16 00:36:17;;;;;;;10.60;6.38;;;;;;;;;;2090640;28;20099;-62
2023/05/16 00:37:37;;;;;;;6.55;5.13;;;;;;;;;;2090273;28;20037;-62
2023/05/16 00:38:56;;;;;;;8.07;5.68;;;;;;;;;;2089677;28;20056;-62
2023/05/16 00:40:15;;;;;;;8.40;5.55;;;;;;;;;;2087292;28;20037;-62
2023/05/16 00:41:34;;;;;;;9.55;5.72;;;;;;;;;;2089804;28;20040;-62
2023/05/16 00:42:53;;;;;;;6.72;6.22;;;;;;;;;;2091498;28;20037;-62
2023/05/16 00:44:12;;;;;;;6.35;5.85;;;;;;;;;;2093254;28;20060;-62
2023/05/16 00:45:31;;;;;;;6.50;5.95;;;;;;;;;;2088206;28;20028;-62
2023/05/16 00:46:50;;;;;;;14.50;5.70;;;;;;;;;;2090941;28;20040;-62
2023/05/16 00:48:11;;;;;;;8.90;5.97;;;;;;;;;;2093036;28;20021;-63
2023/05/16 00:49:30;;;;;;;9.50;6.25;;;;;;;;;;2090960;28;20020;-62
2023/05/16 00:50:49;;;;;;;9.88;6.35;;;;;;;;;;2085998;28;20111;-62
2023/05/16 00:52:08;;;;;;;9.27;6.18;;;;;;;;;;2088842;28;20037;-62
2023/05/16 00:53:27;;;;;;;11.32;6.60;;;;;;;;;;2089161;28;20652;-62
2023/05/16 00:54:45;;;;;;;6.57;5.97;;;;;;;;;;2088273;28;20033;-62
2023/05/16 00:56:05;;;;;;;10.35;5.88;;;;;;;;;;2093498;28;20462;-62
2023/05/16 00:57:24;;;;;;;9.80;5.72;;;;;;;;;;2090461;28;20045;-63
2023/05/16 00:58:43;;;;;;;8.68;6.15;;;;;;;;;;2091042;28;20099;-63
2023/05/16 01:00:04;;;;;;;6.38;5.25;;;;;;;;;;2089766;28;20050;-63
2023/05/16 01:01:24;;;;;;;6.32;5.78;;;;;;;;;;2089578;28;20029;-62
2023/05/16 01:02:44;;;;;;;7.25;6.20;;;;;;;;;;2090219;28;20037;-63
2023/05/16 01:04:04;;;;;;;6.32;5.70;;;;;;;;;;2088890;28;20029;-62
2023/05/16 01:05:24;;;;;;;11.32;5.93;;;;;;;;;;2090661;28;20044;-62
2023/05/16 01:06:43;;;;;;;6.63;6.05;;;;;;;;;;2087456;28;20166;-62
2023/05/16 01:08:02;;;;;;;5.95;5.32;;;;;;;;;;2093183;28;20819;-62
2023/05/16 01:09:21;;;;;;;6.20;5.70;;;;;;;;;;2090287;28;20032;-62
2023/05/16 01:10:46;;;;;;;5.97;5.38;;;;;;;;;;2088189;28;20040;-62
2023/05/16 01:12:21;;;;;;;9.25;5.88;;;;;;;;;;2092353;28;20045;-62
2023/05/16 01:13:46;;;;;;;11.27;5.95;;;;;;;;;;2086369;28;20055;-62
2023/05/16 01:15:13;;;;;;;9.88;5.45;;;;;;;;;;2090385;28;20199;-63
2023/05/16 01:16:36;;;;;;;10.32;5.90;;;;;;;;;;2094755;28;20024;-62
2023/05/16 01:18:14;;;;;;;10.70;5.93;;;;;;;;;;2093210;28;20021;-62
2023/05/16 01:19:39;;;;;;;8.05;5.55;;;;;;;;;;2089898;28;20028;-62
2023/05/16 01:21:02;;;;;;;8.23;6.10;;;;;;;;;;2086464;28;20024;-63
2023/05/16 01:22:45;;;;;;;10.35;6.15;;;;;;;;;;2093105;28;20032;-63
2023/05/16 01:24:12;;;;;;;10.68;5.82;;;;;;;;;;2088658;28;20033;-63
2023/05/16 01:25:31;;;;;;;6.50;5.40;;;;;;;;;;2089166;28;20033;-63
2023/05/16 01:26:51;;;;;;;8.60;5.68;;;;;;;;;;2091807;28;20028;-63
2023/05/16 01:28:11;;;;;;;6.18;5.50;;;;;;;;;;2091120;28;20060;-62
2023/05/16 01:29:30;;;;;;;7.95;6.07;;;;;;;;;;2090673;28;20041;-63
2023/05/16 01:30:50;;;;;;;9.65;5.90;;;;;;;;;;2084462;28;20592;-63
2023/05/16 01:32:09;;;;;;;7.80;5.25;;;;;;;;;;2091950;28;20037;-62
2023/05/16 01:33:28;;;;;;;7.43;5.43;;;;;;;;;;2087715;28;20033;-63
2023/05/16 01:34:49;;;;;;;6.50;5.47;;;;;;;;;;2089071;28;20024;-62
2023/05/16 01:36:08;;;;;;;7.10;5.50;;;;;;;;;;2091576;28;20020;-62
2023/05/16 01:37:35;;;;;;;11.73;5.38;;;;;;;;;;2087855;28;20037;-62
2023/05/16 01:39:10;;;;;;;12.15;5.60;;;;;;;;;;2089963;28;20520;-62
2023/05/16 01:40:35;;;;;;;7.95;5.60;;;;;;;;;;2087041;28;20037;-62
2023/05/16 01:42:07;;;;;;;6.18;5.47;;;;;;;;;;2089304;28;20028;-62
2023/05/16 01:43:34;;;;;;;8.65;6.43;;;;;;;;;;2092770;28;20466;-65
2023/05/16 01:44:57;;;;;;;6.32;5.50;;;;;;;;;;2091381;28;20041;-62
2023/05/16 01:46:16;;;;;;;;;;;;;;;;;;2094342;28;20032;-62
2023/05/16 01:47:37;;;;;;;7.35;5.90;;;;;;;;;;2089485;28;19904;-62
2023/05/16 01:48:55;;;;;;;11.27;6.10;;;;;;;;;;2091006;28;20596;-62
2023/05/16 01:50:16;;;;;;;8.15;5.88;;;;;;;;;;2091606;28;20041;-62
2023/05/16 01:51:35;;;;;;;9.18;5.95;;;;;;;;;;2092791;28;20028;-62
2023/05/16 01:52:59;;;;;;;5.15;4.75;;;;;;;;;;2087606;28;20032;-62
2023/05/16 01:54:19;;;;;;;10.63;6.00;;;;;;;;;;2085102;28;20033;-62
2023/05/16 01:55:48;;;;;;;6.05;5.45;;;;;;;;;;2089283;28;20041;-62
2023/05/16 01:57:07;;;;;;;7.20;5.50;;;;;;;;;;2092232;28;20038;-62
2023/05/16 01:58:29;;;;;;;5.53;5.00;;;;;;;;;;2082912;28;20060;-61
2023/05/16 01:59:48;;;;;;;14.70;5.55;;;;;;;;;;2089745;28;20025;-62
2023/05/16 02:01:07;;;;;;;7.15;5.57;;;;;;;;;;2091114;28;20024;-62
2023/05/16 02:02:26;;;;;;;8.48;5.30;;;;;;;;;;2091624;28;20060;-61
2023/05/16 02:03:45;;;;;;;10.25;5.90;;;;;;;;;;2089829;28;20487;-61
2023/05/16 02:05:04;;;;;;;13.85;5.45;;;;;;;;;;2090523;28;20037;-61
2023/05/16 02:06:23;;;;;;;7.53;5.30;;;;;;;;;;2091124;28;20044;-61
2023/05/16 02:07:43;;;;;;;14.45;5.18;;;;;;;;;;2093738;28;20421;-61
2023/05/16 02:09:02;;;;;;;7.10;5.28;;;;;;;;;;2086507;28;20028;-61
2023/05/16 02:10:21;;;;;;;16.63;5.53;;;;;;;;;;2091150;28;20436;-62
2023/05/16 02:11:40;;;;;;;6.55;4.97;;;;;;;;;;2091698;28;20033;-62
2023/05/16 02:12:58;;;;;;;7.40;4.95;;;;;;;;;;2087586;28;20036;-61
2023/05/16 02:14:17;;;;;;;8.90;5.28;;;;;;;;;;2090368;28;20032;-62
2023/05/16 02:15:37;;;;;;;12.25;5.65;;;;;;;;;;2084422;28;20025;-62
2023/05/16 02:16:56;;;;;;;8.07;5.53;;;;;;;;;;2081282;28;20040;-62
2023/05/16 02:18:16;;;;;;;6.47;5.20;;;;;;;;;;2091034;28;20021;-61
2023/05/16 02:19:35;;;;;;;8.10;5.40;;;;;;;;;;2089184;28;20412;-61
2023/05/16 02:20:54;;;;;;;8.55;5.40;;;;;;;;;;2085593;28;20043;-62
2023/05/16 02:22:13;;;;;;;9.05;5.30;;;;;;;;;;2091011;28;20028;-62
2023/05/16 02:23:32;;;;;;;7.43;5.07;;;;;;;;;;2088075;28;20079;-62
2023/05/16 02:24:51;;;;;;;5.75;4.97;;;;;;;;;;2088920;28;20021;-62
2023/05/16 02:26:10;;;;;;;7.13;4.97;;;;;;;;;;2088581;28;20037;-62
2023/05/16 02:27:29;;;;;;;6.85;5.28;;;;;;;;;;2086711;28;20493;-62
2023/05/16 02:28:51;;;;;;;9.20;4.80;;;;;;;;;;2088468;28;20032;-62
2023/05/16 02:30:11;;;;;;;6.18;5.30;;;;;;;;;;2088052;28;20016;-62
2023/05/16 02:31:30;;;;;;;10.57;4.95;;;;;;;;;;2091180;28;20066;-62
2023/05/16 02:32:50;;;;;;;13.75;5.80;;;;;;;;;;2089845;28;20032;-65
2023/05/16 02:34:09;;;;;;;5.90;5.50;;;;;;;;;;2085575;28;20485;-62
2023/05/16 02:35:28;;;;;;;9.40;5.22;;;;;;;;;;2087042;28;20029;-62
2023/05/16 02:36:47;;;;;;;5.88;4.53;;;;;;;;;;2087367;28;20029;-62
2023/05/16 02:38:06;;;;;;;6.55;4.68;;;;;;;;;;2089580;28;20021;-61
2023/05/16 02:39:25;;;;;;;5.70;4.78;;;;;;;;;;2083070;28;20457;-62
2023/05/16 02:40:44;;;;;;;6.55;5.10;;;;;;;;;;2085009;28;20382;-62
2023/05/16 02:42:04;;;;;;;5.80;5.05;;;;;;;;;;2092319;28;20025;-61
2023/05/16 02:43:23;;;;;;;6.22;5.45;;;;;;;;;;2088294;28;20029;-62
2023/05/16 02:44:42;;;;;;;8.80;5.57;;;;;;;;;;2090272;28;20032;-62
2023/05/16 02:46:03;;;;;;;7.13;4.85;;;;;;;;;;2090932;28;20151;-61
2023/05/16 02:47:22;;;;;;;5.63;5.22;;;;;;;;;;2087993;28;20046;-61
2023/05/16 02:48:41;;;;;;;9.52;5.47;;;;;;;;;;2090997;28;20064;-62
2023/05/16 02:50:00;;;;;;;5.95;5.45;;;;;;;;;;2090942;28;20028;-62
2023/05/16 02:51:19;;;;;;;8.93;5.90;;;;;;;;;;2085331;28;20025;-62
2023/05/16 02:52:38;;;;;;;5.63;5.22;;;;;;;;;;2093421;28;20385;-62
2023/05/16 02:54:00;;;;;;;11.70;5.82;;;;;;;;;;2090819;28;20033;-61
2023/05/16 02:55:20;;;;;;;7.93;5.53;;;;;;;;;;2087382;28;20037;-61
2023/05/16 02:56:39;;;;;;;7.18;5.45;;;;;;;;;;2094951;28;20124;-61
2023/05/16 02:57:58;;;;;;;6.68;5.30;;;;;;;;;;2094166;28;20062;-61
2023/05/16 02:59:17;;;;;;;5.03;4.63;;;;;;;;;;2089158;28;20088;-61
2023/05/16 03:00:36;;;;;;;9.63;5.90;;;;;;;;;;2091471;28;20028;-61
2023/05/16 03:01:55;;;;;;;5.78;5.28;;;;;;;;;;2095280;28;20030;-62
2023/05/16 03:03:14;;;;;;;8.55;5.40;;;;;;;;;;2090012;28;20033;-62
2023/05/16 03:04:33;;;;;;;10.55;5.35;;;;;;;;;;2092858;28;20028;-61
2023/05/16 03:05:55;;;;;;;6.22;5.35;;;;;;;;;;2093164;28;20048;-62
2023/05/16 03:07:14;;;;;;;6.22;5.32;;;;;;;;;;2091591;28;20025;-62
2023/05/16 03:08:34;;;;;;;5.65;5.15;;;;;;;;;;2094762;28;20020;-62
2023/05/16 03:09:52;;;;;;;5.70;5.15;;;;;;;;;;2086113;28;20490;-61
2023/05/16 03:11:12;;;;;;;8.93;5.20;;;;;;;;;;2091936;28;20033;-63
2023/05/16 03:12:31;;;;;;;5.88;5.43;;;;;;;;;;2091221;28;20029;-61
2023/05/16 03:13:50;;;;;;;5.60;5.25;;;;;;;;;;2097163;28;20025;-61
2023/05/16 03:15:09;;;;;;;5.95;5.13;;;;;;;;;;2090577;28;20482;-61
2023/05/16 03:16:27;;;;;;;7.95;5.20;;;;;;;;;;2096599;28;20477;-61
2023/05/16 03:17:46;;;;;;;7.72;5.68;;;;;;;;;;2090159;28;20024;-61
2023/05/16 03:19:05;;;;;;;5.57;5.18;;;;;;;;;;2091954;28;20033;-63
2023/05/16 03:20:24;;;;;;;7.65;5.40;;;;;;;;;;2093444;28;20037;-61
2023/05/16 03:21:43;;;;;;;7.25;5.35;;;;;;;;;;2092117;28;20029;-61
2023/05/16 03:23:02;;;;;;;6.03;5.18;;;;;;;;;;2090173;28;20695;-62
2023/05/16 03:24:22;;;;;;;10.27;5.93;;;;;;;;;;2094883;28;20416;-62
2023/05/16 03:25:42;;;;;;;8.52;5.75;;;;;;;;;;2086699;28;20037;-62
2023/05/16 03:27:03;;;;;;;4.82;4.45;;;;;;;;;;2087905;28;20036;-62
2023/05/16 03:28:22;;;;;;;9.18;5.35;;;;;;;;;;2094977;28;20028;-65
2023/05/16 03:29:41;;;;;;;5.45;5.00;;;;;;;;;;2089044;28;20542;-61
2023/05/16 03:31:00;;;;;;;9.02;5.03;;;;;;;;;;2087179;28;20020;-62
2023/05/16 03:32:19;;;;;;;5.18;4.85;;;;;;;;;;2094371;28;20064;-62
2023/05/16 03:33:37;;;;;;;5.25;4.50;;;;;;;;;;2089441;28;20397;-62
2023/05/16 03:34:56;;;;;;;5.72;5.07;;;;;;;;;;2087763;28;20115;-61
2023/05/16 03:36:15;;;;;;;8.57;5.32;;;;;;;;;;2092942;28;20024;-66
2023/05/16 03:37:34;;;;;;;6.40;5.05;;;;;;;;;;2087585;28;20040;-62
2023/05/16 03:38:53;;;;;;;5.63;5.10;;;;;;;;;;2092164;28;20033;-62
2023/05/16 03:40:12;;;;;;;7.35;5.40;;;;;;;;;;2094406;28;20107;-62
2023/05/16 03:41:31;;;;;;;5.78;4.80;;;;;;;;;;2089281;28;20109;-62
2023/05/16 03:42:50;;;;;;;6.50;5.00;;;;;;;;;;2089973;28;20064;-62
2023/05/16 03:44:09;;;;;;;7.25;4.38;;;;;;;;;;2089320;28;20029;-62
2023/05/16 03:45:29;;;;;;;11.45;5.05;;;;;;;;;;2087902;28;20095;-61
2023/05/16 03:46:50;;;;;;;5.55;5.03;;;;;;;;;;2092734;28;21245;-62
2023/05/16 03:48:09;;;;;;;8.02;5.05;;;;;;;;;;2091092;28;20068;-63
2023/05/16 03:49:28;;;;;;;6.00;5.00;;;;;;;;;;2088567;28;20036;-62
2023/05/16 03:50:47;;;;;;;7.35;5.13;;;;;;;;;;2092685;28;20017;-62
2023/05/16 03:52:06;;;;;;;7.60;5.22;;;;;;;;;;2094116;28;20028;-61
2023/05/16 03:53:24;;;;;;;10.35;5.25;;;;;;;;;;2089976;28;20041;-61
2023/05/16 03:54:43;;;;;;;7.40;4.82;;;;;;;;;;2092802;28;20513;-62
2023/05/16 03:56:02;;;;;;;9.25;5.30;;;;;;;;;;2093821;28;20036;-62
2023/05/16 03:57:21;;;;;;;6.15;5.25;;;;;;;;;;2091679;28;20028;-62
2023/05/16 03:58:40;;;;;;;5.75;5.10;;;;;;;;;;2089076;28;20892;-62
2023/05/16 03:59:59;;;;;;;10.77;6.45;;;;;;;;;;2091126;28;20540;-62
2023/05/16 04:01:18;;;;;;;13.05;5.32;;;;;;;;;;2083916;28;20048;-62
2023/05/16 04:02:41;;;;;;;10.32;6.00;;;;;;;;;;2092810;28;20028;-61
2023/05/16 04:04:01;;;;;;;5.70;5.10;;;;;;;;;;2092851;28;20018;-62
2023/05/16 04:05:20;;;;;;;7.72;5.40;;;;;;;;;;2086542;28;20432;-62
2023/05/16 04:06:39;;;;;;;8.68;5.75;;;;;;;;;;2095366;28;20123;-62
2023/05/16 04:07:58;;;;;;;9.40;5.32;;;;;;;;;;2092300;28;20389;-61
2023/05/16 04:09:17;;;;;;;6.88;5.60;;;;;;;;;;2090351;28;20044;-62
2023/05/16 04:10:36;;;;;;;7.82;5.70;;;;;;;;;;2092155;28;20033;-62
2023/05/16 04:11:55;;;;;;;6.28;5.68;;;;;;;;;;2091378;28;20033;-61
2023/05/16 04:13:15;;;;;;;6.82;5.50;;;;;;;;;;2090708;28;20032;-61
2023/05/16 04:14:34;;;;;;;7.07;5.57;;;;;;;;;;2093206;28;20032;-62
2023/05/16 04:15:53;;;;;;;8.77;6.20;;;;;;;;;;2086012;28;20033;-62
2023/05/16 04:17:12;;;;;;;8.98;5.32;;;;;;;;;;2082307;28;20033;-62
2023/05/16 04:18:31;;;;;;;10.13;6.63;;;;;;;;;;2087886;28;20493;-63
2023/05/16 04:19:50;;;;;;;6.45;5.95;;;;;;;;;;2088367;28;20029;-62
2023/05/16 04:21:13;;;;;;;9.95;5.50;;;;;;;;;;2083755;28;20029;-62
2023/05/16 04:22:32;;;;;;;7.03;5.45;;;;;;;;;;2088684;28;20382;-61
2023/05/16 04:23:51;;;;;;;9.38;5.38;;;;;;;;;;2093090;28;20559;-61
2023/05/16 04:25:11;;;;;;;8.27;6.10;;;;;;;;;;2088739;28;20828;-62
2023/05/16 04:26:30;;;;;;;10.93;5.43;;;;;;;;;;2094382;28;20051;-61
2023/05/16 04:27:50;;;;;;;13.02;5.00;;;;;;;;;;2091376;28;20444;-62
2023/05/16 04:29:10;;;;;;;10.00;5.40;;;;;;;;;;2091253;28;20033;-62
2023/05/16 04:30:29;;;;;;;10.70;5.40;;;;;;;;;;2086773;28;20402;-61
2023/05/16 04:31:48;;;;;;;10.10;5.80;;;;;;;;;;2088126;28;20036;-62
2023/05/16 04:33:07;;;;;;;10.10;5.72;;;;;;;;;;2085279;28;20033;-62
2023/05/16 04:34:26;;;;;;;9.30;5.63;;;;;;;;;;2093872;28;20037;-62
2023/05/16 04:35:45;;;;;;;8.25;5.20;;;;;;;;;;2089341;28;20045;-61
2023/05/16 04:37:06;;;;;;;9.63;6.10;;;;;;;;;;2089966;28;20049;-62
2023/05/16 04:38:25;;;;;;;13.75;6.15;;;;;;;;;;2089328;28;20494;-62
2023/05/16 04:39:45;;;;;;;9.88;5.82;;;;;;;;;;2087817;28;20032;-62
2023/05/16 04:41:04;;;;;;;11.43;6.28;;;;;;;;;;2082637;28;20037;-62
2023/05/16 04:42:23;;;;;;;7.78;5.70;;;;;;;;;;2084121;28;20021;-61
2023/05/16 04:43:43;;;;;;;6.65;6.10;;;;;;;;;;2084722;28;20025;-64
2023/05/16 04:45:02;;;;;;;16.13;6.18;;;;;;;;;;2090451;28;20237;-63
2023/05/16 04:46:21;;;;;;;7.10;6.35;;;;;;;;;;2091494;28;20036;-63
2023/05/16 04:47:41;;;;;;;12.98;7.30;;;;;;;;;;2088335;28;20033;-65
2023/05/16 04:49:00;;;;;;;9.23;5.93;;;;;;;;;;2080962;28;20405;-63
2023/05/16 04:50:19;;;;;;;8.63;6.80;;;;;;;;;;2087307;28;20037;-64
2023/05/16 04:51:38;;;;;;;11.88;6.97;;;;;;;;;;2086934;28;20037;-64
2023/05/16 04:52:57;;;;;;;6.20;5.60;;;;;;;;;;2091729;28;20025;-63
2023/05/16 04:54:16;;;;;;;7.30;6.60;;;;;;;;;;2095411;28;20032;-64
2023/05/16 04:55:35;;;;;;;6.00;5.50;;;;;;;;;;2086161;28;20683;-64
2023/05/16 04:56:54;;;;;;;6.55;6.05;;;;;;;;;;2089454;28;20033;-64
2023/05/16 04:58:13;;;;;;;8.02;6.20;;;;;;;;;;2090009;28;20017;-62
2023/05/16 04:59:32;;;;;;;6.65;6.15;;;;;;;;;;2083953;28;20033;-63
2023/05/16 05:00:51;;;;;;;11.68;6.68;;;;;;;;;;2088880;28;20044;-63
2023/05/16 05:02:10;;;;;;;7.72;7.00;;;;;;;;;;2089870;28;20032;-63
2023/05/16 05:03:29;;;;;;;7.10;6.40;;;;;;;;;;2086080;28;20071;-62
2023/05/16 05:04:48;;;;;;;6.93;6.32;;;;;;;;;;2085876;28;20021;-63
2023/05/16 05:06:07;;;;;;;7.32;6.60;;;;;;;;;;2087314;28;20032;-63
2023/05/16 05:07:28;;;;;;;6.95;6.35;;;;;;;;;;2088875;28;20120;-63
2023/05/16 05:08:47;;;;;;;7.57;6.82;;;;;;;;;;2091768;28;20485;-64
2023/05/16 05:10:07;;;;;;;10.43;6.68;;;;;;;;;;2092133;28;20056;-62
2023/05/16 05:11:26;;;;;;;7.28;6.57;;;;;;;;;;2094680;28;20029;-62
2023/05/16 05:12:45;;;;;;;8.05;7.28;;;;;;;;;;2092352;28;20470;-62
2023/05/16 05:14:04;;;;;;;7.88;7.18;;;;;;;;;;2094996;28;20033;-63
2023/05/16 05:15:23;;;;;;;8.52;7.72;;;;;;;;;;2086368;28;21473;-63
2023/05/16 05:16:42;;;;;;;9.00;7.22;;;;;;;;;;2091246;28;20021;-62
2023/05/16 05:18:01;;;;;;;10.30;7.30;;;;;;;;;;2091064;28;20489;-62
2023/05/16 05:19:20;;;;;;;7.47;6.97;;;;;;;;;;2091564;28;20020;-63
2023/05/16 05:20:39;;;;;;;8.35;7.55;;;;;;;;;;2090824;28;20814;-62
2023/05/16 05:21:58;;;;;;;8.43;7.13;;;;;;;;;;2085912;28;20100;-62
2023/05/16 05:23:18;;;;;;;8.77;7.32;;;;;;;;;;2082667;28;20033;-62
2023/05/16 05:24:37;;;;;;;7.68;6.90;;;;;;;;;;2090475;28;20509;-64
2023/05/16 05:25:56;;;;;;;8.52;6.55;;;;;;;;;;2086572;28;20119;-62
2023/05/16 05:27:16;;;;;;;7.88;6.75;;;;;;;;;;2089675;28;20024;-63
2023/05/16 05:28:36;;;;;;;10.00;7.00;;;;;;;;;;2091662;28;20494;-62
2023/05/16 05:29:56;;;;;;;10.27;7.43;;;;;;;;;;2091384;28;20386;-63
2023/05/16 05:31:15;;;;;;;8.75;6.63;;;;;;;;;;2091990;28;20416;-62
2023/05/16 05:32:34;;;;;;;7.13;6.40;;;;;;;;;;2091564;28;20119;-63
2023/05/16 05:33:53;;;;;;;10.48;7.22;;;;;;;;;;2092098;28;20025;-63
2023/05/16 05:35:14;;;;;;;7.68;6.93;;;;;;;;;;2088503;28;20028;-63
2023/05/16 05:36:33;;;;;;;10.07;7.30;;;;;;;;;;2089379;28;20029;-62
2023/05/16 05:37:52;;;;;;;7.80;6.82;;;;;;;;;;2090476;28;20021;-63
2023/05/16 05:39:11;;;;;;;12.85;7.70;;;;;;;;;;2085446;28;20033;-63
2023/05/16 05:40:29;;;;;;;8.35;7.40;;;;;;;;;;2089279;28;20552;-63
2023/05/16 05:41:49;;;;;;;12.13;7.80;;;;;;;;;;2090519;28;20041;-63
2023/05/16 05:43:07;;;;;;;8.73;8.05;;;;;;;;;;2089850;28;20029;-63
2023/05/16 05:44:26;;;;;;;9.77;7.47;;;;;;;;;;2092172;28;20029;-63
2023/05/16 05:45:45;;;;;;;7.03;6.53;;;;;;;;;;2087041;28;20073;-63
2023/05/16 05:47:05;;;;;;;9.13;7.25;;;;;;;;;;2089090;28;20388;-63
2023/05/16 05:48:24;;;;;;;8.45;7.65;;;;;;;;;;2093732;28;20033;-63
2023/05/16 05:49:43;;;;;;;9.70;7.32;;;;;;;;;;2090551;28;20127;-63
2023/05/16 05:51:02;;;;;;;8.80;7.60;;;;;;;;;;2094744;28;20028;-63
2023/05/16 05:52:21;;;;;;;11.65;8.02;;;;;;;;;;2092495;28;20041;-65
2023/05/16 05:53:40;;;;;;;11.80;7.85;;;;;;;;;;2090912;28;20114;-63
2023/05/16 05:54:59;;;;;;;10.60;7.45;;;;;;;;;;2087417;28;20029;-63
2023/05/16 05:56:20;;;;;;;8.52;7.82;;;;;;;;;;2092189;28;20062;-63
2023/05/16 05:57:39;;;;;;;8.40;7.57;;;;;;;;;;2091874;28;20377;-63
2023/05/16 05:58:58;;;;;;;7.72;7.03;;;;;;;;;;2090199;28;20032;-63
2023/05/16 06:00:17;;;;;;;9.60;7.90;;;;;;;;;;2087208;28;20025;-63
2023/05/16 06:01:36;;;;;;;8.75;7.72;;;;;;;;;;2091257;28;20021;-63
2023/05/16 06:02:55;;;;;;;7.93;7.18;;;;;;;;;;2090189;28;20032;-63
2023/05/16 06:04:14;;;;;;;8.18;7.10;;;;;;;;;;2087241;28;20109;-64
2023/05/16 06:05:33;;;;;;;9.18;8.15;;;;;;;;;;2093114;28;20418;-63
2023/05/16 06:06:52;;;;;;;13.20;8.13;;;;;;;;;;2089555;28;20036;-63
2023/05/16 06:08:11;;;;;;;8.00;7.38;;;;;;;;;;2091766;28;20056;-63
2023/05/16 06:09:31;;;;;;;8.88;7.90;;;;;;;;;;2091776;28;20029;-63
2023/05/16 06:10:50;;;;;;;9.73;7.93;;;;;;;;;;2093255;28;20032;-63
2023/05/16 06:12:09;;;;;;;9.07;7.88;;;;;;;;;;2091846;28;20028;-63
2023/05/16 06:13:28;;;;;;;7.65;6.88;;;;;;;;;;2093482;28;20051;-63
2023/05/16 06:14:47;;;;;;;7.82;6.82;;;;;;;;;;2093668;28;20028;-64
2023/05/16 06:16:06;;;;;;;8.15;6.43;;;;;;;;;;2092983;28;20036;-63
2023/05/16 06:17:25;;;;;;;14.85;7.38;;;;;;;;;;2093635;28;20028;-63
2023/05/16 06:18:44;;;;;;;7.72;6.93;;;;;;;;;;2091992;28;20029;-63
2023/05/16 06:20:03;;;;;;;7.95;7.28;;;;;;;;;;2091333;28;20107;-63
2023/05/16 06:21:23;;;;;;;8.45;6.55;;;;;;;;;;2089891;28;20099;-63
2023/05/16 06:22:42;;;;;;;7.97;7.43;;;;;;;;;;2091385;28;20021;-63
2023/05/16 06:24:01;;;;;;;7.85;7.15;;;;;;;;;;2094273;28;20028;-63
2023/05/16 06:25:20;;;;;;;7.25;6.53;;;;;;;;;;2092961;28;20478;-63
2023/05/16 06:26:39;;;;;;;8.30;7.38;;;;;;;;;;2089805;28;20037;-63
2023/05/16 06:27:58;;;;;;;8.45;7.05;;;;;;;;;;2089000;28;20029;-63
2023/05/16 06:29:17;;;;;;;7.60;6.90;;;;;;;;;;2092756;28;20036;-63
2023/05/16 06:30:36;;;;;;;9.07;7.38;;;;;;;;;;2091788;28;20517;-63
2023/05/16 06:31:55;;;;;;;7.57;7.07;;;;;;;;;;2092142;28;20033;-63
2023/05/16 06:33:14;;;;;;;7.68;7.03;;;;;;;;;;2090742;28;20617;-62
2023/05/16 06:34:34;;;;;;;6.68;6.07;;;;;;;;;;2092881;28;20136;-65
2023/05/16 06:35:53;;;;;;;7.80;7.20;;;;;;;;;;2093727;28;20427;-63
2023/05/16 06:37:12;;;;;;;9.25;7.00;;;;;;;;;;2090938;28;20041;-63
2023/05/16 06:38:31;;;;;;;10.07;7.20;;;;;;;;;;2090900;28;20032;-62
2023/05/16 06:39:49;;;;;;;7.88;6.93;;;;;;;;;;2094474;28;21095;-62
2023/05/16 06:41:08;;;;;;;7.32;6.70;;;;;;;;;;2090437;28;20029;-61
2023/05/16 06:42:27;;;;;;;8.32;7.40;;;;;;;;;;2091191;28;20033;-61
2023/05/16 06:43:46;;;;;;;8.82;7.32;;;;;;;;;;2091672;28;20518;-63
2023/05/16 06:45:05;;;;;;;8.43;7.07;;;;;;;;;;2093265;28;20024;-65
2023/05/16 06:46:25;;;;;;;7.47;6.95;;;;;;;;;;2089505;28;20037;-61
2023/05/16 06:47:44;;;;;;;7.85;7.07;;;;;;;;;;2084762;28;20025;-62
2023/05/16 06:49:03;;;;;;;9.32;7.30;;;;;;;;;;2089939;28;20056;-61
2023/05/16 06:50:22;;;;;;;8.15;7.65;;;;;;;;;;2092263;28;20037;-62
2023/05/16 06:51:41;;;;;;;9.13;7.40;;;;;;;;;;2092370;28;20489;-61
2023/05/16 06:53:01;;;;;;;8.20;7.47;;;;;;;;;;2091361;28;20045;-63
2023/05/16 06:54:20;;;;;;;8.43;7.63;;;;;;;;;;2092192;28;20025;-62
2023/05/16 06:55:39;;;;;;;9.75;7.70;;;;;;;;;;2090274;28;20037;-61
2023/05/16 06:56:58;;;;;;;8.15;7.55;;;;;;;;;;2086426;28;20033;-61
2023/05/16 06:58:17;;;;;;;9.45;7.75;;;;;;;;;;2091655;28;20014;-61
2023/05/16 06:59:36;;;;;;;8.65;7.68;;;;;;;;;;2093058;28;20021;-62
2023/05/16 07:00:55;;;;;;;8.13;7.47;;;;;;;;;;2091015;28;20021;-63
2023/05/16 07:02:14;;;;;;;9.90;7.88;;;;;;;;;;2090538;28;20033;-61
2023/05/16 07:03:33;;;;;;;11.35;7.35;;;;;;;;;;2090662;28;20025;-61
2023/05/16 07:04:52;;;;;;;9.15;7.63;;;;;;;;;;2088581;28;20016;-62
2023/05/16 07:06:11;;;;;;;10.45;8.07;;;;;;;;;;2090109;28;20049;-62
2023/05/16 07:07:30;;;;;;;7.85;7.28;;;;;;;;;;2091009;28;20502;-62
2023/05/16 07:08:49;;;;;;;7.75;7.15;;;;;;;;;;2090156;28;20115;-62
2023/05/16 07:10:08;;;;;;;9.35;7.50;;;;;;;;;;2091491;28;20017;-62
2023/05/16 07:11:27;;;;;;;8.05;7.35;;;;;;;;;;2091515;28;20036;-63
2023/05/16 07:12:46;;;;;;;8.20;7.45;;;;;;;;;;2091552;28;20374;-62
2023/05/16 07:14:05;;;;;;;8.70;7.93;;;;;;;;;;2089400;28;20398;-63
2023/05/16 07:15:24;;;;;;;8.00;7.50;;;;;;;;;;2089056;28;20040;-62
2023/05/16 07:16:43;;;;;;;8.30;7.70;;;;;;;;;;2093657;28;20029;-62
2023/05/16 07:18:02;;;;;;;8.60;7.85;;;;;;;;;;2092740;28;20037;-62
2023/05/16 07:19:21;;;;;;;8.15;7.45;;;;;;;;;;2084654;28;20029;-61
2023/05/16 07:20:40;;;;;;;8.38;7.55;;;;;;;;;;2087672;28;20029;-61
2023/05/16 07:21:59;;;;;;;10.07;7.80;;;;;;;;;;2088351;28;20021;-61
2023/05/16 07:23:17;;;;;;;9.00;8.30;;;;;;;;;;2086084;28;20029;-61
2023/05/16 07:24:37;;;;;;;7.72;7.20;;;;;;;;;;2085911;28;20398;-61
2023/05/16 07:25:55;;;;;;;8.35;7.55;;;;;;;;;;2092536;28;20021;-61
2023/05/16 07:27:15;;;;;;;7.88;7.28;;;;;;;;;;2090859;28;20033;-60
2023/05/16 07:28:34;;;;;;;8.60;7.88;;;;;;;;;;2092958;28;20021;-62
2023/05/16 07:29:53;;;;;;;8.15;7.45;;;;;;;;;;2092978;28;20024;-61
2023/05/16 07:31:12;;;;;;;8.52;7.72;;;;;;;;;;2087380;28;20474;-62
2023/05/16 07:32:31;;;;;;;8.38;7.15;;;;;;;;;;2091977;28;20059;-61
2023/05/16 07:33:50;;;;;;;8.10;7.45;;;;;;;;;;2088785;28;20024;-64
2023/05/16 07:35:09;;;;;;;10.40;7.90;;;;;;;;;;2092432;28;20017;-61
2023/05/16 07:36:28;;;;;;;9.68;8.48;;;;;;;;;;2091150;28;20024;-62
2023/05/16 07:37:47;;;;;;;9.30;8.13;;;;;;;;;;2093392;28;20115;-61
2023/05/16 07:39:06;;;;;;;10.40;7.85;;;;;;;;;;2093433;28;20056;-61
2023/05/16 07:40:28;;;;;;;10.65;8.05;;;;;;;;;;2090313;28;20506;-61
2023/05/16 07:41:47;;;;;;;8.48;7.75;;;;;;;;;;2089570;28;20040;-62
2023/05/16 07:43:06;;;;;;;8.60;7.93;;;;;;;;;;2094185;28;20048;-62
2023/05/16 07:44:25;;;;;;;8.90;8.10;;;;;;;;;;2093335;28;20576;-61
2023/05/16 07:45:44;;;;;;;7.97;7.32;;;;;;;;;;2091883;28;20494;-62
2023/05/16 07:47:03;;;;;;;9.35;8.10;;;;;;;;;;2091109;28;20107;-62
2023/05/16 07:48:21;;;;;;;8.30;7.63;;;;;;;;;;2094564;28;20056;-62
2023/05/16 07:49:40;;;;;;;8.65;7.53;;;;;;;;;;2097077;28;20036;-61
2023/05/16 07:50:59;;;;;;;8.32;7.70;;;;;;;;;;2092828;28;20037;-62
2023/05/16 07:52:18;;;;;;;8.40;7.70;;;;;;;;;;2091665;28;20068;-62
2023/05/16 07:53:37;;;;;;;8.20;7.65;;;;;;;;;;2090700;28;20865;-61
2023/05/16 07:54:57;;;;;;;8.48;7.65;;;;;;;;;;2093621;28;20477;-61
2023/05/16 07:56:16;;;;;;;8.55;7.75;;;;;;;;;;2093544;28;20036;-61